Terminal Aerodrome Forecast
Issued by NWS

Home | Current Version | Previous Version | Text Only | Print | Product List | Glossary On
Versions: 1 2 3 4 5 6 7 8 9 10
823
FTUS43 KEAX 251125
TAFMKC
TAF
KMKC 251125Z 2512/2612 16008KT P6SM BKN250
     FM251500 17012KT P6SM BKN090
     FM260000 20007KT P6SM SHRA VCTS OVC050CB
      TEMPO 2601/2603 4SM -TSRA OVC030CB
     FM260300 30005KT P6SM SHRA VCTS OVC015CB
     FM260700 33006KT P6SM VCSH OVC009=

USA.gov is the U.S. government's official web portal to all federal, state and local government web resources and services.